Dedryck Lukaku

Recruteur en chef - KV Oostende
4 Juin 2028
Dimanche
Processus

Personnalité

Adaptabilité (13) Ambition (20) Controverse (15) Loyauté (18) Pression (19) Professionnalisme (1) Sportivité (3) Tempérament (10)

Profil

Style d'entraînement Démocratique
Diplôme National B
Détermination 12
Gestion des joueurs 8
Motivation 10
Discipline 12
Satisfaction professionnelle
100%
Fatigue
0%
Rôle Recruteur en chef
Salaire 36.6K p/s
Contrat 14.03.2030

Performance

Comportement Bon
Efficacité de l'entraînement
52%
Développement des joueurs
20%
Prévention des blessures
25%
Mise en place tactique
45%

Événements récents

A évalué un joueur maintenant

Suivi en cours

61
Joueur Club Statut Capacité Confiance Observé Dernière observation Dernier vote
Finn Jeltsch VfB Stuttgart Actif 150 / 151 40% 1 02.06.2028 -
T-Jay Parfitt Colchester United Actif 92 / 107 40% 1 02.06.2028 -
Issa Tounkara Etoiles du Mande Actif 98 / 107 40% 1 02.06.2028 -
Nacer Courtois KAA Gent Perdu 121 / 116 76% 1 01.06.2028 -
Nicolas Sport Recife Actif 99 / 107 40% 1 07.01.2028 -
Jon Esenga IF Elfsborg Actif 87 / 97 40% 1 07.01.2028 -
Kauã Moraes Cruzeiro Actif 123 / 117 40% 1 07.01.2028 -
Tylel Tati AJ Auxerre Actif 123 / 134 40% 1 05.01.2028 -
Louka Gautier Chamois Niortais Actif 96 / 111 40% 1 05.01.2028 -
Sidiki Chérif Coventry City Actif 138 / 134 40% 2 02.01.2028 -
Yojan Garcés America de Cali Actif 107 / 113 40% 1 02.01.2028 -
Paris Brunner Monaco Actif 121 / 129 40% 1 02.01.2028 -
Darlvin Yeboah Bechem United Actif 80 / 101 40% 2 16.08.2027 -
Hassan Beja AFC Leopards Actif 84 / 105 40% 1 16.08.2027 -
Victor Orakpo OGC Nice Actif 115 / 130 40% 1 16.08.2027 -
Rayan Bournemouth Actif 139 / 136 40% 3 09.08.2027 -
Kabiru Abdullahi Northampton Town Actif 96 / 94 40% 2 09.08.2027 -
Risilanu Ismail El-Kanemi Warriors Actif 81 / 106 40% 1 09.08.2027 -
Tommaso Ravaglioli AlbinoLeffe Actif 90 / 105 40% 1 27.07.2027 -
Pape Diong Westerlo Actif 114 / 133 40% 1 05.07.2027 -
Marius Courcoul Olympique de Marseille Actif 114 / 133 40% 1 05.07.2027 -
Gady Beyuku Modena Actif 118 / 117 40% 1 21.06.2027 -
Jorge Salinas Racing Santander Actif 126 / 132 40% 1 01.06.2027 -
Alessandro Bolzan Sorrento Actif 94 / 88 40% 1 31.01.2027 -
Dom Ballard Leyton Orient Actif 114 / 134 40% 3 30.01.2027 -
Don-Angelo Konadu Ajax Actif 111 / 110 40% 2 28.01.2027 -
Edmund Baidoo Borussia Dortmund Actif 117 / 130 40% 1 28.01.2027 -
David Kalokoh Ajax Actif 114 / 118 40% 3 27.01.2027 -
Elijah Adebayo Luton Town Actif 128 / 128 40% 1 25.01.2027 -
Christian Kouamé CSKA Moscow Actif 130 / 119 40% 1 25.01.2027 -
Will Lankshear Middlesbrough Actif 123 / 119 40% 2 23.01.2027 -
Eden Batshuayi Charleroi Actif 102 / 112 40% 3 22.01.2027 -
Roberto Iliev Slavia Sofia Actif 103 / 113 40% 1 22.01.2027 -
Luke Baartman Ghazl El Mahalla Actif 111 / 102 40% 2 20.01.2027 -
Luca Maiorano Ospitaletto Actif 100 / 106 40% 2 20.01.2027 -
Leo Castledine Middlesbrough Actif 129 / 126 40% 3 19.01.2027 -
Mfundo Vilakazi Kaizer Chiefs Actif 105 / 124 40% 1 19.01.2027 -
Rocco Vata Watford Actif 121 / 124 40% 1 19.01.2027 -
Dramane Kamagaté USM Alger Actif 109 / 100 40% 2 18.01.2027 -
Mateus Mide Porto Actif 96 / 110 40% 1 14.01.2027 -
Iwan Morgan Grimsby Town Actif 113 / 122 40% 1 13.01.2027 -
Francesco Pio Esposito Inter Actif 138 / 155 40% 1 12.01.2027 -
Nathan Mbala FC Metz Actif 96 / 94 40% 1 08.01.2027 -
Otto Stange Hamburger SV Actif 107 / 134 40% 1 07.01.2027 -
Ryan Oné Sheffield United Actif 108 / 122 40% 1 04.01.2027 -
Oumar Camara Vitoria Guimaraes Actif 123 / 127 40% 1 01.01.2027 -
Darren Yapi Colorado Rapids Actif 94 / 122 40% 1 30.08.2026 -
Marcos Gómez Hrvatski Dragovoljac Actif 97 / 92 40% 1 30.08.2026 -
Serge Daura Dynamo Douala Actif 87 / 90 40% 1 25.08.2026 -
Mark Verkuijl Ajax Actif 103 / 119 40% 1 17.08.2026 -
Sven Bouland Groningen Actif 93 / 107 40% 1 17.08.2026 -
Yaël Thébault Stade Rennais Actif 84 / 96 40% 2 10.08.2026 -
Joaquin Seys Club Brugge Actif 117 / 133 40% 1 10.08.2026 -
Peter Quispel PSV Actif 92 / 90 40% 1 09.08.2026 -
Bohdan Budko AZ Actif 111 / 112 40% 1 09.08.2026 -
Julien Astic Clermont Foot Actif 85 / 101 40% 2 07.08.2026 -
Harrison Murray-Campbell Chelsea Actif 90 / 112 40% 1 06.08.2026 -
Kyriani Sabbe Club Brugge Actif 111 / 113 40% 1 05.08.2026 -
Sékou Doucouré FC Nantes Actif 90 / 92 40% 1 03.08.2026 -
Mathieu Patouillet Stade Brestois Actif 108 / 110 40% 1 01.08.2026 -
Luca Zidane Leganés Actif 125 / 131 40% 1 01.08.2026 -